createdAt,value
2022-09-20T00:01:08.494Z,12.00
2022-09-20T00:03:37.639Z,12.00
2022-09-20T00:06:06.432Z,12.10
2022-09-20T00:08:33.605Z,12.10
2022-09-20T00:11:06.767Z,12.00
2022-09-20T00:13:34.973Z,12.00
2022-09-20T00:16:06.688Z,12.00
2022-09-20T00:18:33.924Z,12.00
2022-09-20T00:21:01.051Z,12.00
2022-09-20T00:23:30.232Z,12.00
2022-09-20T00:26:02.226Z,12.00
2022-09-20T00:28:30.056Z,12.00
2022-09-20T00:30:57.577Z,12.00
2022-09-20T00:33:45.658Z,12.00
2022-09-20T00:36:12.979Z,12.00
2022-09-20T00:38:39.866Z,12.00
2022-09-20T00:41:07.146Z,12.00
2022-09-20T00:43:52.465Z,12.00
2022-09-20T00:46:22.252Z,12.00
2022-09-20T00:48:53.410Z,12.10
2022-09-20T00:51:29.546Z,12.10
2022-09-20T00:53:58.920Z,12.10
2022-09-20T00:56:31.355Z,12.10
2022-09-20T00:59:14.845Z,12.00
2022-09-20T01:01:43.249Z,12.00
2022-09-20T01:04:12.835Z,12.00
2022-09-20T01:06:40.200Z,12.00
2022-09-20T01:09:08.174Z,12.00
2022-09-20T01:11:35.931Z,12.00
2022-09-20T01:14:02.902Z,11.90
2022-09-20T01:16:32.038Z,11.90
2022-09-20T01:19:02.740Z,11.90
2022-09-20T01:21:29.847Z,11.90
2022-09-20T01:24:11.879Z,11.90
2022-09-20T01:26:57.682Z,11.90
2022-09-20T01:29:48.920Z,11.90
2022-09-20T01:32:20.953Z,12.00
2022-09-20T01:34:54.135Z,12.00
2022-09-20T01:37:31.847Z,12.00
2022-09-20T01:40:10.975Z,12.00
2022-09-20T01:42:43.434Z,11.90
2022-09-20T01:45:27.644Z,12.00
2022-09-20T01:48:32.740Z,12.00
2022-09-20T01:51:24.446Z,12.00
2022-09-20T01:54:33.939Z,12.00
2022-09-20T01:57:27.495Z,11.90
2022-09-20T02:00:06.332Z,11.80
2022-09-20T02:03:07.169Z,11.90
2022-09-20T02:06:11.998Z,11.80
2022-09-20T02:09:08.096Z,11.80
2022-09-20T02:12:08.254Z,11.80
2022-09-20T02:15:03.074Z,11.80
2022-09-20T02:17:53.393Z,11.90
2022-09-20T02:20:35.923Z,11.90
2022-09-20T02:23:27.096Z,11.90
2022-09-20T02:26:21.301Z,11.70
2022-09-20T02:29:00.182Z,11.70
2022-09-20T02:31:42.295Z,11.70
2022-09-20T02:34:30.422Z,11.80
2022-09-20T02:37:36.408Z,11.70
2022-09-20T02:40:40.783Z,11.70
2022-09-20T02:43:16.552Z,11.80
2022-09-20T02:45:57.020Z,11.80
2022-09-20T02:48:36.381Z,11.80
2022-09-20T02:51:22.019Z,11.80
2022-09-20T02:54:03.912Z,11.70
2022-09-20T02:57:07.835Z,11.70
2022-09-20T02:59:57.007Z,11.70
2022-09-20T03:02:45.608Z,11.70
2022-09-20T03:05:27.561Z,11.60
2022-09-20T03:08:24.687Z,11.50
2022-09-20T03:11:03.622Z,11.70
2022-09-20T03:13:50.896Z,11.60
2022-09-20T03:17:11.848Z,11.60
2022-09-20T03:20:03.892Z,11.60
2022-09-20T03:22:53.622Z,11.60
2022-09-20T03:25:46.906Z,11.50
2022-09-20T03:28:23.258Z,11.60
2022-09-20T03:31:27.372Z,11.60
2022-09-20T03:34:13.433Z,11.60
2022-09-20T03:37:07.767Z,11.60
2022-09-20T03:39:40.845Z,11.60
2022-09-20T03:42:24.956Z,11.70
2022-09-20T03:45:00.524Z,11.70
2022-09-20T03:47:52.111Z,11.70
2022-09-20T03:50:49.897Z,11.60
2022-09-20T03:53:51.914Z,11.60
2022-09-20T03:56:58.842Z,11.60
2022-09-20T03:59:36.235Z,11.60
2022-09-20T04:02:29.859Z,11.60
2022-09-20T04:05:01.729Z,11.60
2022-09-20T04:07:34.381Z,11.70
2022-09-20T04:10:19.722Z,11.60
2022-09-20T04:13:20.393Z,11.60
2022-09-20T04:16:07.579Z,11.60
2022-09-20T04:18:43.889Z,11.70
2022-09-20T04:21:24.966Z,11.60
2022-09-20T04:24:13.881Z,11.60
2022-09-20T04:26:47.335Z,11.70
2022-09-20T04:29:29.937Z,11.60
2022-09-20T04:32:48.039Z,11.70
2022-09-20T04:35:55.002Z,11.60
2022-09-20T04:38:22.531Z,11.70
2022-09-20T04:40:52.240Z,11.60
2022-09-20T04:43:25.021Z,11.60
2022-09-20T04:46:10.185Z,11.50
2022-09-20T04:48:46.397Z,11.50
2022-09-20T04:51:38.818Z,11.60
2022-09-20T04:54:44.255Z,11.50
2022-09-20T04:57:29.732Z,11.60
2022-09-20T05:00:15.245Z,11.50
2022-09-20T05:03:19.300Z,11.50
2022-09-20T05:06:23.705Z,11.50
2022-09-20T05:09:10.826Z,11.50
2022-09-20T05:12:12.987Z,11.40
2022-09-20T05:15:11.548Z,11.40
2022-09-20T05:17:47.435Z,11.40
2022-09-20T05:20:41.811Z,11.40
2022-09-20T05:23:17.747Z,11.40
2022-09-20T05:25:56.536Z,11.50
2022-09-20T05:28:44.788Z,11.50
2022-09-20T05:31:21.762Z,11.50
2022-09-20T05:34:04.295Z,11.50
2022-09-20T05:37:20.762Z,11.50
2022-09-20T05:39:57.375Z,11.50
2022-09-20T05:42:50.398Z,11.50
2022-09-20T05:45:40.561Z,11.50
2022-09-20T05:48:21.725Z,11.40
2022-09-20T05:51:03.603Z,11.40
2022-09-20T05:53:49.159Z,11.40
2022-09-20T05:56:36.057Z,11.40
2022-09-20T05:59:13.149Z,11.40
2022-09-20T06:02:09.333Z,11.50
2022-09-20T06:05:00.049Z,11.40
2022-09-20T06:07:52.113Z,11.50
2022-09-20T06:11:00.949Z,11.50
2022-09-20T06:14:04.044Z,11.40
2022-09-20T06:16:47.686Z,11.40
2022-09-20T06:19:19.528Z,11.40
2022-09-20T06:22:03.515Z,11.40
2022-09-20T06:24:43.128Z,11.40
2022-09-20T06:27:25.181Z,11.50
2022-09-20T06:29:58.727Z,11.50
2022-09-20T06:32:26.976Z,11.50
2022-09-20T06:34:55.094Z,11.50
2022-09-20T06:38:05.935Z,11.50
2022-09-20T06:41:10.847Z,11.50
2022-09-20T06:43:40.572Z,11.60
2022-09-20T06:46:07.940Z,11.60
2022-09-20T06:48:35.361Z,11.60
2022-09-20T06:51:02.716Z,11.60
2022-09-20T06:53:35.296Z,11.60
2022-09-20T06:56:02.678Z,11.60
2022-09-20T06:58:29.661Z,11.70
2022-09-20T07:00:56.837Z,11.70
2022-09-20T07:03:23.840Z,11.80
2022-09-20T07:05:50.988Z,11.80
2022-09-20T07:08:17.889Z,11.80
2022-09-20T07:10:45.292Z,11.80
2022-09-20T07:13:13.934Z,11.80
2022-09-20T07:15:40.974Z,11.90
2022-09-20T07:18:08.340Z,11.80
2022-09-20T07:20:35.626Z,11.90
2022-09-20T07:23:02.830Z,12.00
2022-09-20T07:25:31.428Z,12.00
2022-09-20T07:27:58.414Z,12.00
2022-09-20T07:30:25.350Z,12.00
2022-09-20T07:32:52.552Z,12.10
2022-09-20T07:35:19.469Z,12.20
2022-09-20T07:37:47.063Z,12.30
2022-09-20T07:40:15.018Z,12.30
2022-09-20T07:42:42.140Z,12.40
2022-09-20T07:45:09.491Z,12.40
2022-09-20T07:47:36.477Z,12.50
2022-09-20T07:50:04.716Z,12.50
2022-09-20T07:52:31.930Z,12.50
2022-09-20T07:54:58.868Z,12.50
2022-09-20T07:57:25.974Z,12.60
2022-09-20T07:59:52.923Z,12.60
2022-09-20T08:02:19.950Z,12.60
2022-09-20T08:04:49.958Z,12.70
2022-09-20T08:07:16.968Z,12.80
2022-09-20T08:09:44.027Z,12.80
2022-09-20T08:14:58.083Z,12.90
2022-09-20T08:17:25.266Z,13.00
2022-09-20T08:19:53.541Z,13.00
2022-09-20T08:22:20.544Z,13.00
2022-09-20T08:24:47.568Z,13.10
2022-09-20T08:27:14.603Z,13.20
2022-09-20T08:29:41.875Z,13.20
2022-09-20T08:32:09.073Z,13.20
2022-09-20T08:34:36.078Z,13.20
2022-09-20T08:37:03.018Z,13.20
2022-09-20T08:42:33.882Z,13.30
2022-09-20T08:45:08.166Z,13.30
2022-09-20T08:47:42.012Z,13.30
2022-09-20T08:50:18.765Z,13.20
2022-09-20T08:52:52.322Z,13.30
2022-09-20T08:55:23.225Z,13.30
2022-09-20T08:57:53.082Z,13.30
2022-09-20T09:00:23.356Z,13.20
2022-09-20T09:02:57.483Z,13.30
2022-09-20T09:05:47.498Z,13.30
2022-09-20T09:08:17.224Z,13.30
2022-09-20T09:10:59.268Z,13.30
2022-09-20T09:13:51.447Z,13.30
2022-09-20T09:16:27.311Z,13.30
2022-09-20T09:18:57.858Z,13.30
2022-09-20T09:21:30.329Z,13.40
2022-09-20T09:24:04.310Z,13.30
2022-09-20T09:26:39.559Z,13.30
2022-09-20T09:29:23.595Z,13.30
2022-09-20T09:31:53.070Z,13.30
2022-09-20T09:34:38.960Z,13.40
2022-09-20T09:37:05.867Z,13.40
2022-09-20T09:39:38.381Z,13.50
2022-09-20T09:42:25.910Z,13.50
2022-09-20T09:47:37.898Z,13.60
2022-09-20T09:50:09.750Z,13.70
2022-09-20T09:52:37.103Z,13.70
2022-09-20T09:55:05.963Z,13.70
2022-09-20T09:57:56.074Z,13.80
2022-09-20T10:00:25.045Z,13.80
2022-09-20T10:03:03.855Z,13.90
2022-09-20T10:05:54.407Z,13.90
2022-09-20T10:08:59.014Z,13.90
2022-09-20T10:11:39.438Z,14.00
2022-09-20T10:14:24.955Z,14.00
2022-09-20T10:17:06.994Z,14.10
2022-09-20T10:19:48.995Z,14.20
2022-09-20T10:22:38.149Z,14.30
2022-09-20T10:25:17.419Z,14.50
2022-09-20T10:27:54.825Z,14.60
2022-09-20T10:30:25.666Z,14.70
2022-09-20T10:33:00.062Z,14.90
2022-09-20T10:35:46.867Z,15.00
2022-09-20T10:38:19.900Z,15.10
2022-09-20T10:41:35.136Z,15.20
2022-09-20T10:44:11.892Z,15.40
2022-09-20T10:47:00.701Z,15.80
2022-09-20T10:49:39.509Z,16.20
2022-09-20T10:52:34.733Z,16.60
2022-09-20T10:55:20.803Z,16.80
2022-09-20T10:58:17.207Z,17.10
2022-09-20T11:01:01.669Z,17.40
2022-09-20T11:03:50.358Z,17.70
2022-09-20T11:06:40.248Z,17.90
2022-09-20T11:09:14.062Z,18.10
2022-09-20T11:11:48.032Z,18.50
2022-09-20T11:14:21.784Z,18.70
2022-09-20T11:17:09.574Z,18.80
2022-09-20T11:20:06.171Z,19.00
2022-09-20T11:22:59.163Z,19.40
2022-09-20T11:25:41.172Z,19.40
2022-09-20T11:28:11.627Z,19.60
2022-09-20T11:31:04.589Z,19.90
2022-09-20T11:33:41.631Z,20.20
2022-09-20T11:36:20.416Z,20.40
2022-09-20T11:38:54.071Z,20.60
2022-09-20T11:41:29.607Z,20.80
2022-09-20T11:44:18.475Z,21.30
2022-09-20T11:47:03.573Z,21.70
2022-09-20T11:50:05.353Z,22.00
2022-09-20T11:52:32.333Z,22.60
2022-09-20T11:55:32.851Z,22.50
2022-09-20T11:58:08.197Z,22.90
2022-09-20T12:00:41.553Z,23.00
2022-09-20T12:03:31.062Z,22.90
2022-09-20T12:06:01.125Z,22.60
2022-09-20T12:08:41.967Z,22.20
2022-09-20T12:11:14.692Z,22.00
2022-09-20T12:13:52.083Z,21.90
2022-09-20T12:16:43.863Z,21.80
2022-09-20T12:19:14.163Z,21.70
2022-09-20T12:22:11.471Z,21.70
2022-09-20T12:24:44.498Z,21.80
2022-09-20T12:27:27.628Z,21.70
2022-09-20T12:30:05.517Z,21.60
2022-09-20T12:32:32.362Z,21.70
2022-09-20T12:34:59.270Z,21.60
2022-09-20T12:37:27.035Z,21.40
2022-09-20T12:39:55.784Z,21.40
2022-09-20T12:42:32.059Z,21.40
2022-09-20T12:45:07.415Z,21.60
2022-09-20T12:47:36.986Z,22.10
2022-09-20T12:50:35.254Z,22.50
2022-09-20T12:53:04.664Z,23.00
2022-09-20T12:55:51.724Z,23.20
2022-09-20T12:58:22.999Z,23.30
2022-09-20T13:01:05.057Z,23.00
2022-09-20T13:03:35.306Z,22.70
2022-09-20T13:06:12.425Z,22.30
2022-09-20T13:09:01.316Z,22.00
2022-09-20T13:11:30.474Z,21.80
2022-09-20T13:14:10.806Z,21.90
2022-09-20T13:16:37.813Z,22.00
2022-09-20T13:19:12.562Z,22.00
2022-09-20T13:21:45.047Z,22.00
2022-09-20T13:24:18.096Z,21.90
2022-09-20T13:26:47.968Z,21.70
2022-09-20T13:29:35.021Z,21.50
2022-09-20T13:32:23.686Z,21.50
2022-09-20T13:35:19.428Z,21.40
2022-09-20T13:38:07.042Z,21.50
2022-09-20T13:40:33.943Z,21.40
2022-09-20T13:43:22.571Z,21.40
2022-09-20T13:45:55.607Z,21.40
2022-09-20T13:48:26.556Z,21.60
2022-09-20T13:50:54.148Z,21.50
2022-09-20T13:53:40.719Z,21.40
2022-09-20T13:56:22.624Z,21.40
2022-09-20T13:58:51.393Z,21.40
2022-09-20T14:01:34.240Z,21.40
2022-09-20T14:04:13.425Z,21.30
2022-09-20T14:06:42.513Z,21.20
2022-09-20T14:09:24.137Z,21.20
2022-09-20T14:11:51.515Z,21.10
2022-09-20T14:14:22.191Z,21.00
2022-09-20T14:16:51.755Z,21.10
2022-09-20T14:19:21.367Z,21.00
2022-09-20T14:21:49.112Z,21.00
2022-09-20T14:24:30.522Z,21.00
2022-09-20T14:27:14.848Z,21.00
2022-09-20T14:29:44.493Z,20.90
2022-09-20T14:32:20.393Z,21.00
2022-09-20T14:34:51.706Z,21.00
2022-09-20T14:37:49.058Z,21.00
2022-09-20T14:40:40.481Z,20.90
2022-09-20T14:43:20.125Z,21.00
2022-09-20T14:45:55.511Z,20.70
2022-09-20T14:48:22.474Z,20.70
2022-09-20T14:51:22.382Z,20.60
2022-09-20T14:54:13.795Z,20.40
2022-09-20T14:56:49.271Z,20.30
2022-09-20T14:59:21.293Z,20.20
2022-09-20T15:02:17.489Z,20.10
2022-09-20T15:04:55.012Z,20.20
2022-09-20T15:07:22.483Z,20.10
2022-09-20T15:09:49.603Z,20.00
2022-09-20T15:12:19.300Z,20.00
2022-09-20T15:14:47.264Z,20.00
2022-09-20T15:17:19.958Z,20.00
2022-09-20T15:19:48.345Z,19.90
2022-09-20T15:22:16.052Z,20.00
2022-09-20T15:24:43.645Z,20.20
2022-09-20T15:27:12.267Z,20.30
2022-09-20T15:29:39.336Z,20.40
2022-09-20T15:32:06.642Z,20.30
2022-09-20T15:34:33.560Z,20.30
2022-09-20T15:37:00.565Z,20.20
2022-09-20T15:39:28.074Z,20.20
2022-09-20T15:41:55.128Z,20.10
2022-09-20T15:44:22.186Z,20.10
2022-09-20T15:46:51.454Z,20.30
2022-09-20T15:49:18.392Z,20.40
2022-09-20T15:51:46.364Z,20.40
2022-09-20T15:54:14.767Z,20.50
2022-09-20T15:56:42.188Z,20.50
2022-09-20T15:59:11.229Z,20.40
2022-09-20T16:04:18.756Z,20.40
2022-09-20T16:06:50.421Z,20.30
2022-09-20T16:09:18.369Z,20.30
2022-09-20T16:11:46.253Z,20.20
2022-09-20T16:14:13.473Z,20.00
2022-09-20T16:16:40.994Z,20.00
2022-09-20T16:19:17.644Z,19.90
2022-09-20T16:21:55.014Z,19.90
2022-09-20T16:24:26.175Z,19.90
2022-09-20T16:26:53.636Z,19.80
2022-09-20T16:29:22.208Z,19.70
2022-09-20T16:31:50.655Z,19.70
2022-09-20T16:34:29.831Z,19.60
2022-09-20T16:37:17.267Z,19.60
2022-09-20T16:39:44.477Z,19.50
2022-09-20T16:42:13.305Z,19.60
2022-09-20T16:44:42.858Z,19.50
2022-09-20T16:47:18.277Z,19.50
2022-09-20T16:49:47.355Z,19.40
2022-09-20T16:52:14.930Z,19.40
2022-09-20T16:54:41.979Z,19.40
2022-09-20T16:57:10.048Z,19.40
2022-09-20T16:59:36.995Z,19.30
2022-09-20T17:02:04.043Z,19.20
2022-09-20T17:04:31.072Z,19.20
2022-09-20T17:06:58.225Z,19.10
2022-09-20T17:09:25.381Z,19.10
2022-09-20T17:11:52.733Z,19.00
2022-09-20T17:14:21.185Z,19.00
2022-09-20T17:16:49.331Z,18.90
2022-09-20T17:19:18.732Z,18.90
2022-09-20T17:21:50.239Z,18.80
2022-09-20T17:27:17.024Z,18.80
2022-09-20T17:29:44.289Z,18.80
2022-09-20T17:32:11.281Z,18.60
2022-09-20T17:34:38.636Z,18.50
2022-09-20T17:37:06.002Z,18.40
2022-09-20T17:39:32.996Z,18.40
2022-09-20T17:41:59.873Z,18.30
2022-09-20T17:44:28.059Z,18.20
2022-09-20T17:46:55.090Z,18.20
2022-09-20T17:49:23.608Z,18.10
2022-09-20T17:51:52.891Z,17.90
2022-09-20T17:54:20.921Z,17.80
2022-09-20T17:56:53.551Z,17.80
2022-09-20T17:59:21.418Z,17.80
2022-09-20T18:01:51.063Z,17.70
2022-09-20T18:04:20.938Z,17.70
2022-09-20T18:06:50.087Z,17.60
2022-09-20T18:09:22.266Z,17.60
2022-09-20T18:11:51.180Z,17.50
2022-09-20T18:14:28.975Z,17.40
2022-09-20T18:17:00.864Z,17.30
2022-09-20T18:19:32.913Z,17.30
2022-09-20T18:22:01.371Z,17.30
2022-09-20T18:24:28.335Z,17.30
2022-09-20T18:26:55.369Z,17.20
2022-09-20T18:29:22.309Z,17.20
2022-09-20T18:31:52.140Z,17.10
2022-09-20T18:34:33.624Z,17.10
2022-09-20T18:37:01.375Z,17.10
2022-09-20T18:39:35.024Z,17.10
2022-09-20T18:42:03.568Z,17.10
2022-09-20T18:44:33.755Z,17.00
2022-09-20T18:47:03.931Z,17.00
2022-09-20T18:49:31.444Z,17.00
2022-09-20T18:51:58.696Z,17.00
2022-09-20T18:54:29.199Z,16.90
2022-09-20T18:56:56.287Z,16.90
2022-09-20T18:59:25.407Z,16.80
2022-09-20T19:01:55.583Z,16.80
2022-09-20T19:04:50.225Z,16.80
2022-09-20T19:07:28.179Z,16.80
2022-09-20T19:10:03.191Z,16.80
2022-09-20T19:12:53.082Z,16.70
2022-09-20T19:15:35.156Z,16.80
2022-09-20T19:18:11.231Z,16.70
2022-09-20T19:20:58.269Z,16.60
2022-09-20T19:23:46.566Z,16.60
2022-09-20T19:26:24.920Z,16.50
2022-09-20T19:28:55.300Z,16.60
2022-09-20T19:31:30.879Z,16.60
2022-09-20T19:34:00.811Z,16.60
2022-09-20T19:36:57.492Z,16.60
2022-09-20T19:39:47.983Z,16.60
2022-09-20T19:42:28.736Z,16.60
2022-09-20T19:45:31.348Z,16.50
2022-09-20T19:48:08.041Z,16.50
2022-09-20T19:50:48.671Z,16.50
2022-09-20T19:53:17.644Z,16.40
2022-09-20T19:55:48.472Z,16.40
2022-09-20T19:58:16.243Z,16.40
2022-09-20T20:00:47.314Z,16.40
2022-09-20T20:03:15.919Z,16.30
2022-09-20T20:05:53.411Z,16.30
2022-09-20T20:08:38.856Z,16.30
2022-09-20T20:11:05.700Z,16.30
2022-09-20T20:13:53.030Z,16.20
2022-09-20T20:16:33.660Z,16.30
2022-09-20T20:19:18.809Z,16.20
2022-09-20T20:22:18.950Z,16.20
2022-09-20T20:24:58.841Z,16.10
2022-09-20T20:27:29.343Z,16.10
2022-09-20T20:30:10.523Z,16.00
2022-09-20T20:32:37.462Z,16.00
2022-09-20T20:35:04.813Z,16.10
2022-09-20T20:37:34.074Z,16.10
2022-09-20T20:40:01.993Z,16.10
2022-09-20T20:42:28.912Z,16.10
2022-09-20T20:44:55.863Z,16.10
2022-09-20T20:47:23.203Z,16.00
2022-09-20T20:49:53.508Z,15.90
2022-09-20T20:52:20.435Z,15.90
2022-09-20T20:54:47.336Z,15.90
2022-09-20T20:57:18.670Z,15.80
2022-09-20T20:59:46.273Z,15.80
2022-09-20T21:02:13.214Z,15.70
2022-09-20T21:04:40.844Z,15.60
2022-09-20T21:07:07.757Z,15.60
2022-09-20T21:09:34.620Z,15.50
2022-09-20T21:12:03.187Z,15.50
2022-09-20T21:14:31.980Z,15.50
2022-09-20T21:16:58.924Z,15.40
2022-09-20T21:19:26.298Z,15.50
2022-09-20T21:21:53.331Z,15.50
2022-09-20T21:24:20.278Z,15.50
2022-09-20T21:26:47.627Z,15.60
2022-09-20T21:29:16.119Z,15.60
2022-09-20T21:31:45.236Z,15.60
2022-09-20T21:34:13.951Z,15.50
2022-09-20T21:36:44.873Z,15.40
2022-09-20T21:39:12.197Z,15.40
2022-09-20T21:41:40.008Z,15.30
2022-09-20T21:44:10.802Z,15.30
2022-09-20T21:46:40.223Z,15.20
2022-09-20T21:49:12.277Z,15.20
2022-09-20T21:51:42.032Z,15.10
2022-09-20T21:54:09.805Z,15.10
2022-09-20T21:56:38.228Z,15.10
2022-09-20T21:59:06.392Z,15.10
2022-09-20T22:01:36.238Z,15.00
2022-09-20T22:04:10.451Z,15.00
2022-09-20T22:06:42.513Z,15.00
2022-09-20T22:09:15.292Z,15.00
2022-09-20T22:11:47.426Z,15.10
2022-09-20T22:14:16.287Z,15.00
2022-09-20T22:16:45.109Z,15.00
2022-09-20T22:19:14.798Z,15.00
2022-09-20T22:21:44.299Z,15.00
2022-09-20T22:24:12.740Z,15.00
2022-09-20T22:26:42.921Z,15.00
2022-09-20T22:29:10.123Z,15.00
2022-09-20T22:31:45.264Z,15.00
2022-09-20T22:34:20.309Z,15.00
2022-09-20T22:36:47.905Z,15.00
2022-09-20T22:39:15.834Z,14.90
2022-09-20T22:41:43.613Z,14.90
2022-09-20T22:44:11.479Z,14.70
2022-09-20T22:46:38.937Z,14.60
2022-09-20T22:49:07.807Z,14.60
2022-09-20T22:51:35.148Z,14.60
2022-09-20T22:54:06.837Z,14.60
2022-09-20T22:56:34.663Z,14.70
2022-09-20T22:59:06.621Z,14.70
2022-09-20T23:01:42.458Z,14.60
2022-09-20T23:04:12.745Z,14.50
2022-09-20T23:06:47.033Z,14.50
2022-09-20T23:09:16.128Z,14.60
2022-09-20T23:11:43.676Z,14.50
2022-09-20T23:14:19.557Z,14.50
2022-09-20T23:16:47.810Z,14.50
2022-09-20T23:19:15.133Z,14.40
2022-09-20T23:21:43.332Z,14.30
2022-09-20T23:24:13.637Z,14.30
2022-09-20T23:26:41.385Z,14.20
2022-09-20T23:29:13.574Z,14.20
2022-09-20T23:31:45.758Z,14.30
2022-09-20T23:34:14.389Z,14.20
2022-09-20T23:36:43.469Z,14.10
2022-09-20T23:39:11.081Z,14.10
2022-09-20T23:41:38.650Z,14.10
2022-09-20T23:44:06.793Z,14.10
2022-09-20T23:46:34.520Z,14.00
2022-09-20T23:49:02.274Z,14.00
2022-09-20T23:51:30.757Z,14.00
2022-09-20T23:53:57.678Z,13.90
2022-09-20T23:56:25.128Z,13.80
2022-09-20T23:58:52.201Z,13.80
